Aviation Digital Data Service (ADDS)

Output produced by METARs form (1157 UTC 21 October 2014)
found at http://aviationweather.gov/adds/metars/
 
KBDL 211128Z 2112/2218 VRB03KT P6SM BKN150 
     FM220400 36004KT 5SM BR BKN040 
     FM220600 36004KT 5SM BR BKN010 
     FM221200 35006KT P6SM OVC015 
     FM221500 36007KT P6SM -SHRA OVC020